createdAt,value
2022-12-31T00:01:50.593Z,12.58
2022-12-31T00:05:39.680Z,12.74
2022-12-31T00:09:22.342Z,12.74
2022-12-31T00:13:04.964Z,12.76
2022-12-31T00:16:51.879Z,12.80
2022-12-31T00:20:34.777Z,12.78
2022-12-31T00:24:17.437Z,12.79
2022-12-31T00:28:00.156Z,12.92
2022-12-31T00:31:42.892Z,12.84
2022-12-31T00:35:27.224Z,12.83
2022-12-31T00:39:11.532Z,12.88
2022-12-31T00:42:56.507Z,12.93
2022-12-31T00:50:21.152Z,13.05
2022-12-31T00:54:05.485Z,13.09
2022-12-31T00:57:48.172Z,13.15
2022-12-31T01:01:32.880Z,13.16
2022-12-31T01:05:15.949Z,13.15
2022-12-31T01:08:58.820Z,13.21
2022-12-31T01:12:42.886Z,13.26
2022-12-31T01:16:28.117Z,13.25
2022-12-31T01:20:11.380Z,13.31
2022-12-31T01:23:56.904Z,13.31
2022-12-31T01:27:39.567Z,13.32
2022-12-31T01:31:24.369Z,13.34
2022-12-31T01:35:09.602Z,13.37
2022-12-31T01:38:52.540Z,13.37
2022-12-31T01:42:35.254Z,13.34
2022-12-31T01:46:27.909Z,13.38
2022-12-31T01:50:13.930Z,13.38
2022-12-31T01:53:57.084Z,13.40
2022-12-31T01:57:40.072Z,13.41
2022-12-31T02:01:29.115Z,13.38
2022-12-31T02:05:20.357Z,13.46
2022-12-31T02:09:03.064Z,13.48
2022-12-31T02:12:45.874Z,13.50
2022-12-31T02:16:33.686Z,13.48
2022-12-31T02:20:46.713Z,13.52
2022-12-31T02:24:53.477Z,13.48
2022-12-31T02:28:59.347Z,13.42
2022-12-31T02:33:05.010Z,13.47
2022-12-31T02:36:49.196Z,13.50
2022-12-31T02:40:34.688Z,13.46
2022-12-31T02:44:27.988Z,13.51
2022-12-31T02:48:27.483Z,13.53
2022-12-31T02:52:16.369Z,13.51
2022-12-31T02:56:04.608Z,13.54
2022-12-31T03:00:11.635Z,13.55
2022-12-31T03:04:21.963Z,13.66
2022-12-31T03:08:09.457Z,13.73
2022-12-31T03:12:09.481Z,13.68
2022-12-31T03:15:52.205Z,13.72
2022-12-31T03:19:53.994Z,13.87
2022-12-31T03:23:38.893Z,13.83
2022-12-31T03:27:20.630Z,13.82
2022-12-31T03:31:04.167Z,13.94
2022-12-31T03:34:48.366Z,14.00
2022-12-31T03:38:31.049Z,14.07
2022-12-31T03:42:13.754Z,14.00
2022-12-31T03:45:59.631Z,14.09
2022-12-31T03:49:42.522Z,14.11
2022-12-31T03:53:27.413Z,14.15
2022-12-31T03:57:10.547Z,14.18
2022-12-31T04:00:53.263Z,14.17
2022-12-31T04:04:35.968Z,14.20
2022-12-31T04:08:18.669Z,14.22
2022-12-31T04:12:02.727Z,14.31
2022-12-31T04:15:45.462Z,14.27
2022-12-31T04:19:28.114Z,14.32
2022-12-31T04:23:10.976Z,14.42
2022-12-31T04:26:53.609Z,14.41
2022-12-31T04:30:37.677Z,14.46
2022-12-31T04:34:20.568Z,14.54
2022-12-31T04:38:03.311Z,14.56
2022-12-31T04:41:46.081Z,14.59
2022-12-31T04:45:28.793Z,14.60
2022-12-31T04:49:15.071Z,14.65
2022-12-31T04:52:57.736Z,14.62
2022-12-31T04:56:40.407Z,14.55
2022-12-31T05:00:23.017Z,14.62
2022-12-31T05:04:06.129Z,14.72
2022-12-31T05:07:50.195Z,14.72
2022-12-31T05:11:33.197Z,14.76
2022-12-31T05:15:16.102Z,14.65
2022-12-31T05:18:58.736Z,14.69
2022-12-31T05:22:41.380Z,14.72
2022-12-31T05:26:25.446Z,14.65
2022-12-31T05:30:09.497Z,14.64
2022-12-31T05:33:52.220Z,14.59
2022-12-31T05:37:35.115Z,14.58
2022-12-31T05:41:17.729Z,14.57
2022-12-31T05:45:01.794Z,14.49
2022-12-31T05:48:44.445Z,14.44
2022-12-31T05:52:27.270Z,14.44
2022-12-31T05:56:09.958Z,14.43
2022-12-31T05:59:53.542Z,14.32
2022-12-31T06:03:40.558Z,14.36
2022-12-31T06:07:23.285Z,14.30
2022-12-31T06:11:06.221Z,14.19
2022-12-31T06:14:48.879Z,14.15
2022-12-31T06:18:31.601Z,14.11
2022-12-31T06:22:15.677Z,14.05
2022-12-31T06:25:59.283Z,14.13
2022-12-31T06:29:42.225Z,14.17
2022-12-31T06:33:24.885Z,14.03
2022-12-31T06:37:07.528Z,14.00
2022-12-31T06:40:51.714Z,14.05
2022-12-31T06:44:34.366Z,14.02
2022-12-31T06:48:17.086Z,14.04
2022-12-31T06:51:59.820Z,14.03
2022-12-31T06:55:43.110Z,14.04
2022-12-31T06:59:28.878Z,14.17
2022-12-31T07:03:20.664Z,14.14
2022-12-31T07:07:12.071Z,14.10
2022-12-31T07:10:59.821Z,14.13
2022-12-31T07:14:47.823Z,13.99
2022-12-31T07:18:35.212Z,13.91
2022-12-31T07:22:18.443Z,13.90
2022-12-31T07:26:06.182Z,13.96
2022-12-31T07:30:02.952Z,13.90
2022-12-31T07:33:51.827Z,13.89
2022-12-31T07:37:42.436Z,13.93
2022-12-31T07:41:40.028Z,13.88
2022-12-31T07:45:29.730Z,13.84
2022-12-31T07:49:13.670Z,13.69
2022-12-31T07:52:59.374Z,13.61
2022-12-31T07:56:42.356Z,13.52
2022-12-31T08:00:27.489Z,13.43
2022-12-31T08:04:19.480Z,13.38
2022-12-31T08:08:12.555Z,13.32
2022-12-31T08:11:58.122Z,13.29
2022-12-31T08:15:42.664Z,13.27
2022-12-31T08:19:27.505Z,13.29
2022-12-31T08:23:23.070Z,13.30
2022-12-31T08:27:10.565Z,13.29
2022-12-31T08:30:59.391Z,13.31
2022-12-31T08:34:50.209Z,13.36
2022-12-31T08:38:37.526Z,13.37
2022-12-31T08:42:26.324Z,13.41
2022-12-31T08:46:17.179Z,13.45
2022-12-31T08:50:00.454Z,13.68
2022-12-31T08:53:43.666Z,13.89
2022-12-31T08:57:33.618Z,14.15
2022-12-31T09:01:22.186Z,14.36
2022-12-31T09:05:11.049Z,14.46
2022-12-31T09:08:58.594Z,14.70
2022-12-31T09:12:44.814Z,14.86
2022-12-31T09:16:33.288Z,14.85
2022-12-31T09:20:18.965Z,14.85
2022-12-31T09:24:09.154Z,14.84
2022-12-31T09:28:04.459Z,14.94
2022-12-31T09:31:52.690Z,14.95
2022-12-31T09:35:40.460Z,15.08
2022-12-31T09:39:30.557Z,15.07
2022-12-31T09:43:48.087Z,15.08
2022-12-31T09:48:00.893Z,15.08
2022-12-31T09:51:46.855Z,15.04
2022-12-31T09:55:36.516Z,15.15
2022-12-31T09:59:24.673Z,15.42
2022-12-31T10:03:31.461Z,15.59
2022-12-31T10:07:24.667Z,15.78
2022-12-31T10:11:12.512Z,15.74
2022-12-31T10:15:16.328Z,15.93
2022-12-31T10:19:21.783Z,16.27
2022-12-31T10:23:27.083Z,16.50
2022-12-31T10:27:19.659Z,16.59
2022-12-31T10:31:14.575Z,16.77
2022-12-31T10:35:03.047Z,16.79
2022-12-31T10:38:55.636Z,16.84
2022-12-31T10:43:01.529Z,16.91
2022-12-31T10:47:09.852Z,16.91
2022-12-31T10:51:28.519Z,16.91
2022-12-31T10:55:44.752Z,16.92
2022-12-31T10:59:43.357Z,16.97
2022-12-31T11:04:02.776Z,17.00
2022-12-31T11:08:10.697Z,17.07
2022-12-31T11:12:03.643Z,17.15
2022-12-31T11:16:01.335Z,17.16
2022-12-31T11:19:50.569Z,17.18
2022-12-31T11:23:39.614Z,17.22
2022-12-31T11:27:49.280Z,17.35
2022-12-31T11:31:53.094Z,17.49
2022-12-31T11:35:57.151Z,17.62
2022-12-31T11:39:50.581Z,17.94
2022-12-31T11:43:38.527Z,18.01
2022-12-31T11:48:28.076Z,18.17
2022-12-31T11:52:07.940Z,18.33
2022-12-31T11:56:08.826Z,18.39
2022-12-31T11:59:57.931Z,18.45
2022-12-31T12:03:43.545Z,18.63
2022-12-31T12:07:27.389Z,18.68
2022-12-31T12:11:18.925Z,18.78
2022-12-31T12:15:08.434Z,19.01
2022-12-31T12:18:52.726Z,19.17
2022-12-31T12:22:36.562Z,19.28
2022-12-31T12:26:36.290Z,19.53
2022-12-31T12:30:22.422Z,19.62
2022-12-31T12:34:05.603Z,19.84
2022-12-31T12:37:48.338Z,19.94
2022-12-31T12:41:31.162Z,20.06
2022-12-31T12:45:17.619Z,20.22
2022-12-31T12:49:02.662Z,20.30
2022-12-31T12:53:08.888Z,20.29
2022-12-31T12:56:57.558Z,20.22
2022-12-31T13:00:46.027Z,20.35
2022-12-31T13:04:45.765Z,20.33
2022-12-31T13:08:38.725Z,20.31
2022-12-31T13:12:24.905Z,20.30
2022-12-31T13:16:12.838Z,20.30
2022-12-31T13:20:04.712Z,20.30
2022-12-31T13:23:51.300Z,20.24
2022-12-31T13:27:35.693Z,20.10
2022-12-31T13:31:21.237Z,19.89
2022-12-31T13:35:16.700Z,19.70
2022-12-31T13:39:02.339Z,19.50
2022-12-31T13:42:49.321Z,19.34
2022-12-31T13:46:38.554Z,19.23
2022-12-31T13:50:25.991Z,19.18
2022-12-31T13:54:18.365Z,19.07
2022-12-31T13:58:06.947Z,18.95
2022-12-31T14:01:53.174Z,18.87
2022-12-31T14:05:39.624Z,18.79
2022-12-31T14:09:26.131Z,18.69
2022-12-31T14:13:20.755Z,18.56
2022-12-31T14:17:07.044Z,18.44
2022-12-31T14:20:56.435Z,18.30
2022-12-31T14:24:45.010Z,18.18
2022-12-31T14:28:30.538Z,18.04
2022-12-31T14:32:34.017Z,17.90
2022-12-31T14:36:27.299Z,17.78
2022-12-31T14:40:19.503Z,17.63
2022-12-31T14:44:09.935Z,17.50
2022-12-31T14:47:55.810Z,17.36
2022-12-31T14:51:42.846Z,17.22
2022-12-31T14:55:29.048Z,17.01
2022-12-31T14:59:25.654Z,16.78
2022-12-31T15:03:24.564Z,16.65
2022-12-31T15:07:14.753Z,16.47
2022-12-31T15:11:11.576Z,16.26
2022-12-31T15:15:09.711Z,16.09
2022-12-31T15:19:06.392Z,15.94
2022-12-31T15:22:52.178Z,15.92
2022-12-31T15:26:35.027Z,15.85
2022-12-31T15:30:36.803Z,15.81
2022-12-31T15:34:26.412Z,15.75
2022-12-31T15:38:30.761Z,15.66
2022-12-31T15:42:38.290Z,15.55
2022-12-31T15:46:25.731Z,15.46
2022-12-31T15:50:14.379Z,15.39
2022-12-31T15:54:03.673Z,15.28
2022-12-31T15:57:46.701Z,15.15
2022-12-31T16:01:34.927Z,15.08
2022-12-31T16:05:22.082Z,15.02
2022-12-31T16:09:08.030Z,14.95
2022-12-31T16:12:50.791Z,14.87
2022-12-31T16:16:34.377Z,14.80
2022-12-31T16:20:25.014Z,14.67
2022-12-31T16:24:30.134Z,14.60
2022-12-31T16:28:18.449Z,14.53
2022-12-31T16:32:03.469Z,14.46
2022-12-31T16:35:55.917Z,14.39
2022-12-31T16:39:40.551Z,14.34
2022-12-31T16:43:29.646Z,14.29
2022-12-31T16:47:18.020Z,14.18
2022-12-31T16:51:00.750Z,14.16
2022-12-31T16:54:47.237Z,14.03
2022-12-31T16:58:31.862Z,13.90
2022-12-31T17:02:17.617Z,13.86
2022-12-31T17:06:13.710Z,13.83
2022-12-31T17:10:20.827Z,13.78
2022-12-31T17:14:15.609Z,13.70
2022-12-31T17:17:59.221Z,13.65
2022-12-31T17:21:48.456Z,13.58
2022-12-31T17:25:34.175Z,13.54
2022-12-31T17:29:26.068Z,13.47
2022-12-31T17:33:30.684Z,13.39
2022-12-31T17:37:18.744Z,13.32
2022-12-31T17:41:14.642Z,13.31
2022-12-31T17:45:01.193Z,13.24
2022-12-31T17:48:45.080Z,13.21
2022-12-31T17:52:29.924Z,13.14
2022-12-31T17:56:18.412Z,13.04
2022-12-31T18:00:01.275Z,12.99
2022-12-31T18:03:43.957Z,13.02
2022-12-31T18:07:26.602Z,13.04
2022-12-31T18:11:14.726Z,13.08
2022-12-31T18:14:57.424Z,13.02
2022-12-31T18:18:41.936Z,13.01
2022-12-31T18:22:24.631Z,12.98
2022-12-31T18:26:07.548Z,12.95
2022-12-31T18:29:51.614Z,12.88
2022-12-31T18:33:34.458Z,12.85
2022-12-31T18:37:21.778Z,12.86
2022-12-31T18:41:05.023Z,12.80
2022-12-31T18:44:48.012Z,12.76
2022-12-31T18:48:32.095Z,12.74
2022-12-31T18:52:15.647Z,12.72
2022-12-31T18:55:58.662Z,12.72
2022-12-31T18:59:41.377Z,12.72
2022-12-31T19:03:27.260Z,12.69
2022-12-31T19:07:11.607Z,12.63
2022-12-31T19:10:54.509Z,12.62
2022-12-31T19:14:38.779Z,12.65
2022-12-31T19:18:21.525Z,12.72
2022-12-31T19:22:04.225Z,12.62
2022-12-31T19:25:48.937Z,12.47
2022-12-31T19:29:31.622Z,12.39
2022-12-31T19:33:14.548Z,12.29
2022-12-31T19:36:57.325Z,12.30
2022-12-31T19:40:41.232Z,12.28
2022-12-31T19:44:25.283Z,12.18
2022-12-31T19:48:08.080Z,12.09
2022-12-31T19:51:50.814Z,12.01
2022-12-31T19:55:33.985Z,11.98
2022-12-31T19:59:16.716Z,11.94
2022-12-31T20:03:01.007Z,11.88
2022-12-31T20:06:44.654Z,11.83
2022-12-31T20:10:27.576Z,11.80
2022-12-31T20:14:10.291Z,11.74
2022-12-31T20:17:52.975Z,11.70
2022-12-31T20:21:38.772Z,11.71
2022-12-31T20:25:21.456Z,11.68
2022-12-31T20:29:05.624Z,11.67
2022-12-31T20:32:48.364Z,11.69
2022-12-31T20:36:31.279Z,11.64
2022-12-31T20:40:15.492Z,11.63
2022-12-31T20:43:58.223Z,11.63
2022-12-31T20:47:41.129Z,11.62
2022-12-31T20:51:24.620Z,11.60
2022-12-31T20:55:09.574Z,11.62
2022-12-31T20:58:53.680Z,11.58
2022-12-31T21:02:42.030Z,11.59
2022-12-31T21:06:25.652Z,11.61
2022-12-31T21:10:11.757Z,11.59
2022-12-31T21:13:56.058Z,11.56
2022-12-31T21:17:40.363Z,11.53
2022-12-31T21:21:23.421Z,11.50
2022-12-31T21:25:06.973Z,11.48
2022-12-31T21:28:49.644Z,11.43
2022-12-31T21:32:33.676Z,11.39
2022-12-31T21:36:16.927Z,11.36
2022-12-31T21:39:59.626Z,11.32
2022-12-31T21:43:42.289Z,11.25
2022-12-31T21:47:47.494Z,11.22
2022-12-31T21:51:31.799Z,11.18
2022-12-31T21:55:32.090Z,11.16
2022-12-31T21:59:32.467Z,11.15
2022-12-31T22:03:28.549Z,11.17
2022-12-31T22:07:12.811Z,11.16
2022-12-31T22:10:56.092Z,11.20
2022-12-31T22:14:38.765Z,11.17
2022-12-31T22:18:21.844Z,11.16
2022-12-31T22:22:06.151Z,11.21
2022-12-31T22:25:51.648Z,11.18
2022-12-31T22:29:34.260Z,11.15
2022-12-31T22:33:16.887Z,11.12
2022-12-31T22:37:09.010Z,11.20
2022-12-31T22:41:05.254Z,11.26
2022-12-31T22:44:47.930Z,11.35
2022-12-31T22:48:31.598Z,11.34
2022-12-31T22:52:14.709Z,11.38
2022-12-31T22:55:57.529Z,11.43
2022-12-31T22:59:41.606Z,11.50
2022-12-31T23:03:24.456Z,11.50
2022-12-31T23:07:07.723Z,11.56
2022-12-31T23:11:02.816Z,11.57
2022-12-31T23:15:04.419Z,11.63
2022-12-31T23:19:05.650Z,11.70
2022-12-31T23:23:06.366Z,11.95
2022-12-31T23:26:49.158Z,12.17
2022-12-31T23:30:33.430Z,12.12
2022-12-31T23:34:16.862Z,12.16
2022-12-31T23:38:02.307Z,12.33
2022-12-31T23:41:44.995Z,12.32
2022-12-31T23:45:32.849Z,12.36
2022-12-31T23:49:17.372Z,12.29
2022-12-31T23:53:00.051Z,12.23
2022-12-31T23:56:43.046Z,12.29
